Steelville, Ohio
Current Conditions -  °F | °C
As of 2:53 AM on Monday 22 Dec 2014 (Local Time) from KLUK Reporting Station
Haze Haze  
Wind Chill: 25°   Ceiling: 5000
Heat Index: 25°   Visibility: 6mi
Dew Point: 24°   Wind: 0mph
Humidity: 96%   Direction: NA
Pressure: 30.09"   Gusts: NA
Location:  39.23°N, 84.2394°W
Report Text: KLUK 220753Z AUTO 00000KT 6SM BR OVC050 M04/M04 A3009 RMK AO2 SLP192 T10391044
Loading
Personal Weather Stations






























Interactive Weather Map New forecast layout! Learn more

10-Day Weather Forecast

Advertisements
Track Severe Weather on mobile